Time;durP1;ratioP1;P1;durP2;ratioP2;P2;SDS_P1;SDS_P2;PMS_P1;PMS_P2;Temp;Humidity;BMP_temperature;BMP_pressure;BME280_temperature;BME280_humidity;BME280_pressure;Samples;Min_cycle;Max_cycle;Signal;HPM_P1;HPM_P2
2022/10/26 00:01:27;;;;;;;;;;;10.00;99.90;;;;;;5026560;28;19944;-67
2022/10/26 00:03:54;;;;;;;;;;;10.00;99.90;;;;;;4967615;28;162640;-69
2022/10/26 00:06:21;;;;;;;;;;;10.00;99.90;;;;;;5004055;28;19917;-67
2022/10/26 00:08:47;;;;;;;;;;;10.00;99.90;;;;;;4967586;28;241986;-68
2022/10/26 00:11:14;;;;;;;;;;;10.00;99.90;;;;;;5039242;28;20386;-68
2022/10/26 00:13:40;;;;;;;;;;;10.00;99.90;;;;;;4966002;28;216114;-69
2022/10/26 00:16:09;;;;;;;;;;;10.00;99.90;;;;;;5044458;28;19932;-68
2022/10/26 00:18:35;;;;;;;;;;;10.00;99.90;;;;;;4983083;28;181583;-68
2022/10/26 00:21:03;;;;;;;;;;;10.00;99.90;;;;;;5033980;28;20282;-68
2022/10/26 00:23:29;;;;;;;;;;;10.00;99.90;;;;;;4990536;28;211821;-69
2022/10/26 00:25:55;;;;;;;;;;;10.00;99.90;;;;;;5027469;28;20378;-67
2022/10/26 00:28:22;;;;;;;;;;;10.00;99.90;;;;;;4966352;28;242560;-68
2022/10/26 00:30:48;;;;;;;;;;;10.00;99.90;;;;;;5027723;28;19917;-68
2022/10/26 00:33:14;;;;;;;;;;;10.00;99.90;;;;;;4988729;28;208918;-68
2022/10/26 00:35:40;;;;;;;;;;;9.90;99.90;;;;;;5033731;28;20476;-67
2022/10/26 00:38:06;;;;;;;;;;;10.00;99.90;;;;;;4980554;28;185957;-68
2022/10/26 00:40:32;;;;;;;;;;;10.00;99.90;;;;;;5023861;28;19920;-68
2022/10/26 00:43:00;;;;;;;;;;;10.00;99.90;;;;;;4972037;28;171846;-68
2022/10/26 00:45:27;;;;;;;;;;;9.90;99.90;;;;;;5015622;28;19921;-66
2022/10/26 00:48:05;;;;;;;;;;;9.90;99.90;;;;;;4974936;28;201063;-68
2022/10/26 00:50:33;;;;;;;;;;;9.80;99.90;;;;;;5012108;28;19920;-67
2022/10/26 00:53:02;;;;;;;;;;;9.80;99.90;;;;;;4956186;28;133379;-68
2022/10/26 00:55:30;;;;;;;;;;;9.80;99.90;;;;;;5016304;28;20483;-66
2022/10/26 00:57:56;;;;;;;;;;;9.70;99.90;;;;;;4972404;28;165527;-67
2022/10/26 01:00:22;;;;;;;;;;;9.70;99.90;;;;;;5019265;28;19925;-68
2022/10/26 01:02:49;;;;;;;;;;;9.70;99.90;;;;;;4951741;28;237711;-68
2022/10/26 01:05:16;;;;;;;;;;;9.60;99.90;;;;;;5009779;28;20007;-68
2022/10/26 01:07:42;;;;;;;;;;;9.60;99.90;;;;;;4970587;28;251093;-66
2022/10/26 01:10:08;;;;;;;;;;;9.60;99.90;;;;;;5013397;28;19932;-66
2022/10/26 01:12:35;;;;;;;;;;;9.50;99.90;;;;;;4964365;28;292525;-68
2022/10/26 01:15:01;;;;;;;;;;;9.50;99.90;;;;;;5005937;28;19928;-67
2022/10/26 01:17:40;;;;;;;;;;;9.50;99.90;;;;;;4951765;28;213329;-66
2022/10/26 01:20:06;;;;;;;;;;;9.40;99.90;;;;;;5003287;28;19921;-67
2022/10/26 01:22:39;;;;;;;;;;;9.40;99.90;;;;;;5009528;28;90921;-68
2022/10/26 01:25:08;;;;;;;;;;;9.40;99.90;;;;;;5011896;28;19920;-68
2022/10/26 01:27:35;;;;;;;;;;;9.40;99.90;;;;;;5002674;28;212237;-68
2022/10/26 01:30:14;;;;;;;;;;;9.40;99.90;;;;;;5029014;28;20531;-68
2022/10/26 01:32:45;;;;;;;;;;;9.30;99.90;;;;;;4973868;28;207437;-68
2022/10/26 01:35:11;;;;;;;;;;;9.30;99.90;;;;;;5048729;28;20693;-68
2022/10/26 01:37:45;;;;;;;;;;;9.30;99.90;;;;;;4955639;28;227538;-68
2022/10/26 01:40:16;;;;;;;;;;;9.30;99.90;;;;;;5017819;28;19940;-67
2022/10/26 01:42:45;;;;;;;;;;;9.30;99.90;;;;;;4999597;28;165849;-67
2022/10/26 01:45:13;;;;;;;;;;;9.30;99.90;;;;;;5014732;28;19924;-68
2022/10/26 01:47:39;;;;;;;;;;;9.30;99.90;;;;;;4964137;28;145962;-68
2022/10/26 01:50:06;;;;;;;;;;;9.30;99.90;;;;;;5018631;28;19924;-68
2022/10/26 01:52:32;;;;;;;;;;;9.30;99.90;;;;;;4944978;28;859075;-67
2022/10/26 01:55:21;;;;;;;;;;;9.30;99.90;;;;;;5022292;28;19927;-68
2022/10/26 01:57:49;;;;;;;;;;;9.30;99.90;;;;;;4968061;28;158113;-68
2022/10/26 02:00:15;;;;;;;;;;;9.30;99.90;;;;;;5023518;28;19925;-70
2022/10/26 02:03:06;;;;;;;;;;;9.30;99.90;;;;;;4967374;28;206766;-68
2022/10/26 02:05:32;;;;;;;;;;;9.30;99.90;;;;;;5023663;28;20414;-68
2022/10/26 02:08:03;;;;;;;;;;;9.30;99.90;;;;;;4979161;28;157835;-70
2022/10/26 02:10:35;;;;;;;;;;;9.20;99.90;;;;;;5009500;28;19940;-67
2022/10/26 02:13:08;;;;;;;;;;;9.20;99.90;;;;;;4983931;28;152539;-68
2022/10/26 02:15:45;;;;;;;;;;;9.20;99.90;;;;;;5032335;28;20302;-68
2022/10/26 02:18:31;;;;;;;;;;;9.20;99.90;;;;;;4986011;28;178303;-67
2022/10/26 02:20:59;;;;;;;;;;;9.20;99.90;;;;;;5020325;28;19923;-67
2022/10/26 02:23:27;;;;;;;;;;;9.20;99.90;;;;;;4975991;28;209817;-67
2022/10/26 02:25:57;;;;;;;;;;;9.20;99.90;;;;;;5035515;28;19917;-68
2022/10/26 02:28:28;;;;;;;;;;;9.10;99.90;;;;;;4990314;28;208897;-67
2022/10/26 02:30:56;;;;;;;;;;;9.10;99.90;;;;;;5036874;28;19917;-68
2022/10/26 02:33:23;;;;;;;;;;;9.20;99.90;;;;;;4980524;28;166148;-68
2022/10/26 02:35:51;;;;;;;;;;;9.10;99.90;;;;;;5027555;28;20397;-67
2022/10/26 02:38:19;;;;;;;;;;;9.20;99.90;;;;;;4992680;28;207114;-67
2022/10/26 02:40:46;;;;;;;;;;;9.20;99.90;;;;;;5010788;28;19921;-67
2022/10/26 02:43:14;;;;;;;;;;;9.10;99.90;;;;;;4972306;28;209932;-67
2022/10/26 02:45:45;;;;;;;;;;;9.20;99.90;;;;;;5026843;28;19917;-68
2022/10/26 02:48:11;;;;;;;;;;;9.10;99.90;;;;;;4953584;28;204604;-66
2022/10/26 02:50:41;;;;;;;;;;;9.20;99.90;;;;;;5020168;28;19924;-68
2022/10/26 02:53:18;;;;;;;;;;;9.10;99.90;;;;;;4975493;28;185031;-67
2022/10/26 02:55:49;;;;;;;;;;;9.10;99.90;;;;;;5055737;28;20000;-67
2022/10/26 02:58:27;;;;;;;;;;;9.10;99.90;;;;;;4975160;28;143357;-69
2022/10/26 03:00:53;;;;;;;;;;;9.10;99.90;;;;;;5019896;28;20421;-68
2022/10/26 03:03:20;;;;;;;;;;;9.10;99.90;;;;;;4946256;28;180022;-68
2022/10/26 03:05:46;;;;;;;;;;;9.10;99.90;;;;;;5024025;28;19921;-68
2022/10/26 03:08:12;;;;;;;;;;;9.10;99.90;;;;;;4979310;28;167536;-68
2022/10/26 03:10:42;;;;;;;;;;;9.10;99.90;;;;;;5005978;28;19925;-67
2022/10/26 03:13:08;;;;;;;;;;;9.10;99.90;;;;;;4992755;28;206376;-69
2022/10/26 03:15:34;;;;;;;;;;;9.10;99.90;;;;;;5016009;28;19929;-68
2022/10/26 03:18:03;;;;;;;;;;;9.00;99.90;;;;;;4972132;28;209127;-68
2022/10/26 03:20:29;;;;;;;;;;;9.10;99.90;;;;;;5034577;28;19917;-68
2022/10/26 03:22:57;;;;;;;;;;;9.10;99.90;;;;;;4965526;28;187522;-68
2022/10/26 03:25:24;;;;;;;;;;;9.10;99.90;;;;;;5025537;28;19924;-68
2022/10/26 03:27:57;;;;;;;;;;;9.10;99.90;;;;;;4971286;28;146270;-68
2022/10/26 03:30:23;;;;;;;;;;;9.10;99.90;;;;;;5028798;28;19924;-67
2022/10/26 03:32:49;;;;;;;;;;;9.10;99.90;;;;;;4981364;28;193147;-68
2022/10/26 03:35:15;;;;;;;;;;;9.10;99.90;;;;;;5030267;28;20016;-68
2022/10/26 03:37:41;;;;;;;;;;;9.10;99.90;;;;;;4953776;28;803471;-67
2022/10/26 03:40:07;;;;;;;;;;;9.10;99.90;;;;;;5029734;28;19927;-67
2022/10/26 03:42:36;;;;;;;;;;;9.10;99.90;;;;;;4975273;28;102535;-68
2022/10/26 03:45:02;;;;;;;;;;;9.20;99.90;;;;;;5013271;28;19921;-68
2022/10/26 03:47:28;;;;;;;;;;;9.20;99.90;;;;;;4977758;28;182040;-68
2022/10/26 03:49:54;;;;;;;;;;;9.20;99.90;;;;;;5003968;28;19946;-67
2022/10/26 03:52:20;;;;;;;;;;;9.10;99.90;;;;;;4985914;28;113577;-68
2022/10/26 03:54:46;;;;;;;;;;;9.10;99.90;;;;;;5038738;28;19924;-67
2022/10/26 03:57:12;;;;;;;;;;;9.10;99.90;;;;;;4982422;28;78443;-70
2022/10/26 03:59:38;;;;;;;;;;;9.10;99.90;;;;;;5022274;28;20335;-68
2022/10/26 04:02:04;;;;;;;;;;;9.10;99.90;;;;;;4947364;28;207026;-68
2022/10/26 04:04:30;;;;;;;;;;;9.10;99.90;;;;;;5024284;28;20440;-67
2022/10/26 04:06:55;;;;;;;;;;;9.10;99.90;;;;;;4989015;28;255202;-67
2022/10/26 04:09:22;;;;;;;;;;;9.10;99.90;;;;;;5004824;28;205397;-67
2022/10/26 04:11:47;;;;;;;;;;;9.10;99.90;;;;;;5015782;28;231403;-67
2022/10/26 04:14:13;;;;;;;;;;;9.10;99.90;;;;;;4984183;28;214518;-68
2022/10/26 04:16:39;;;;;;;;;;;9.10;99.90;;;;;;5028530;28;19932;-70
2022/10/26 04:19:05;;;;;;;;;;;9.10;99.90;;;;;;4968155;28;229517;-68
2022/10/26 04:21:32;;;;;;;;;;;9.10;99.90;;;;;;5041472;28;20668;-68
2022/10/26 04:23:57;;;;;;;;;;;9.10;99.90;;;;;;4964121;28;280382;-70
2022/10/26 04:26:23;;;;;;;;;;;9.10;99.90;;;;;;5025822;28;19991;-68
2022/10/26 04:28:49;;;;;;;;;;;9.10;99.90;;;;;;4975701;28;216175;-67
2022/10/26 04:31:15;;;;;;;;;;;9.10;99.90;;;;;;5005756;28;19921;-69
2022/10/26 04:33:41;;;;;;;;;;;9.10;99.90;;;;;;4963826;28;186589;-69
2022/10/26 04:36:07;;;;;;;;;;;9.10;99.90;;;;;;5022147;28;19925;-68
2022/10/26 04:38:33;;;;;;;;;;;9.20;99.90;;;;;;4990989;28;162757;-69
2022/10/26 04:40:59;;;;;;;;;;;9.20;99.90;;;;;;5033608;28;19917;-69
2022/10/26 04:43:25;;;;;;;;;;;9.20;99.90;;;;;;4998463;28;102300;-67
2022/10/26 04:45:55;;;;;;;;;;;9.30;99.90;;;;;;5021946;28;19921;-68
2022/10/26 04:48:21;;;;;;;;;;;9.30;99.90;;;;;;4960134;28;1142742;-68
2022/10/26 04:50:47;;;;;;;;;;;9.30;99.90;;;;;;5027399;28;19925;-68
2022/10/26 04:53:13;;;;;;;;;;;9.40;99.90;;;;;;4974792;28;207311;-69
2022/10/26 04:55:39;;;;;;;;;;;9.50;99.90;;;;;;5011504;28;19925;-67
2022/10/26 04:58:05;;;;;;;;;;;9.40;99.90;;;;;;4984119;28;191235;-68
2022/10/26 05:00:32;;;;;;;;;;;9.50;99.90;;;;;;5027508;28;19939;-69
2022/10/26 05:02:58;;;;;;;;;;;9.50;99.90;;;;;;4971163;28;206696;-69
2022/10/26 05:05:24;;;;;;;;;;;9.50;99.90;;;;;;5024123;28;19924;-67
2022/10/26 05:07:54;;;;;;;;;;;9.60;99.90;;;;;;4980214;28;139205;-67
2022/10/26 05:10:21;;;;;;;;;;;9.60;99.90;;;;;;5035655;28;20391;-68
2022/10/26 05:12:53;;;;;;;;;;;9.60;99.90;;;;;;4972698;28;210816;-68
2022/10/26 05:15:20;;;;;;;;;;;9.60;99.90;;;;;;5013436;28;20429;-68
2022/10/26 05:17:46;;;;;;;;;;;9.60;99.90;;;;;;4962207;28;197188;-69
2022/10/26 05:20:13;;;;;;;;;;;9.70;99.90;;;;;;4989645;28;19925;-68
2022/10/26 05:22:39;;;;;;;;;;;9.70;99.90;;;;;;4980338;28;208833;-67
2022/10/26 05:25:05;;;;;;;;;;;9.70;99.90;;;;;;5029186;28;19928;-68
2022/10/26 05:27:31;;;;;;;;;;;9.70;99.90;;;;;;4979156;28;169399;-69
2022/10/26 05:29:57;;;;;;;;;;;9.80;99.90;;;;;;4991261;28;19917;-67
2022/10/26 05:32:23;;;;;;;;;;;9.80;99.90;;;;;;4971305;28;233218;-68
2022/10/26 05:34:49;;;;;;;;;;;9.80;99.90;;;;;;5036453;28;19925;-67
2022/10/26 05:37:18;;;;;;;;;;;9.90;99.90;;;;;;4966814;28;275635;-68
2022/10/26 05:39:44;;;;;;;;;;;9.90;99.90;;;;;;5019479;28;19921;-67
2022/10/26 05:42:10;;;;;;;;;;;9.90;99.90;;;;;;4975683;28;216029;-68
2022/10/26 05:44:36;;;;;;;;;;;10.00;99.90;;;;;;5007931;28;20306;-69
2022/10/26 05:47:02;;;;;;;;;;;10.00;99.90;;;;;;4967564;28;214826;-67
2022/10/26 05:49:28;;;;;;;;;;;10.00;99.90;;;;;;5030052;28;19925;-68
2022/10/26 05:51:54;;;;;;;;;;;10.10;99.90;;;;;;4994401;28;206171;-68
2022/10/26 05:54:20;;;;;;;;;;;10.10;99.90;;;;;;4983695;28;19925;-69
2022/10/26 05:56:46;;;;;;;;;;;10.10;99.90;;;;;;5021496;28;19916;-68
2022/10/26 05:59:13;;;;;;;;;;;10.10;99.90;;;;;;4965270;28;212973;-68
2022/10/26 06:01:44;;;;;;;;;;;10.10;99.90;;;;;;5046567;28;19933;-67
2022/10/26 06:04:13;;;;;;;;;;;10.20;99.90;;;;;;4947477;28;209320;-68
2022/10/26 06:06:42;;;;;;;;;;;10.20;99.90;;;;;;5052934;28;19921;-67
2022/10/26 06:09:10;;;;;;;;;;;10.20;99.90;;;;;;4955073;28;220676;-68
2022/10/26 06:11:36;;;;;;;;;;;10.20;99.90;;;;;;5025949;28;19917;-69
2022/10/26 06:14:02;;;;;;;;;;;10.30;99.90;;;;;;4955109;28;235542;-69
2022/10/26 06:16:43;;;;;;;;;;;10.30;99.90;;;;;;5019724;28;19917;-69
2022/10/26 06:19:21;;;;;;;;;;;10.30;99.90;;;;;;4966764;28;207901;-68
2022/10/26 06:21:47;;;;;;;;;;;10.30;99.90;;;;;;5024993;28;214711;-68
2022/10/26 06:24:19;;;;;;;;;;;10.30;99.90;;;;;;4975847;28;138876;-68
2022/10/26 06:26:51;;;;;;;;;;;10.40;99.90;;;;;;5031443;28;19920;-69
2022/10/26 06:29:25;;;;;;;;;;;10.40;99.90;;;;;;4979841;28;210090;-71
2022/10/26 06:31:51;;;;;;;;;;;10.40;99.90;;;;;;5010670;28;228372;-70
2022/10/26 06:34:24;;;;;;;;;;;10.40;99.90;;;;;;4976970;28;70716;-68
2022/10/26 06:36:50;;;;;;;;;;;10.40;99.90;;;;;;5011086;28;207956;-69
2022/10/26 06:39:16;;;;;;;;;;;10.50;99.90;;;;;;4982928;28;169677;-68
2022/10/26 06:41:42;;;;;;;;;;;10.50;99.90;;;;;;5015267;28;19921;-69
2022/10/26 06:44:11;;;;;;;;;;;10.50;99.90;;;;;;4980499;28;156372;-69
2022/10/26 06:46:48;;;;;;;;;;;10.50;99.90;;;;;;5026834;28;19928;-68
2022/10/26 06:49:17;;;;;;;;;;;10.50;99.90;;;;;;4964694;28;83582;-68
2022/10/26 06:52:04;;;;;;;;;;;10.60;99.90;;;;;;5019897;28;20280;-68
2022/10/26 06:54:50;;;;;;;;;;;10.60;99.90;;;;;;4962645;28;206354;-69
2022/10/26 06:57:17;;;;;;;;;;;10.60;99.90;;;;;;4982388;28;216250;-69
2022/10/26 06:59:51;;;;;;;;;;;10.70;99.90;;;;;;5035228;28;19921;-68
2022/10/26 07:02:18;;;;;;;;;;;10.70;99.90;;;;;;4969285;28;218614;-69
2022/10/26 07:04:44;;;;;;;;;;;10.80;99.90;;;;;;5019262;28;19932;-69
2022/10/26 07:07:11;;;;;;;;;;;10.80;99.90;;;;;;5006073;28;210620;-68
2022/10/26 07:09:37;;;;;;;;;;;10.80;99.90;;;;;;5015256;28;19917;-68
2022/10/26 07:12:03;;;;;;;;;;;10.90;99.90;;;;;;4960918;28;213546;-69
2022/10/26 07:14:29;;;;;;;;;;;10.90;99.90;;;;;;5023110;28;19921;-70
2022/10/26 07:16:55;;;;;;;;;;;11.00;99.90;;;;;;5006162;28;218142;-69
2022/10/26 07:19:22;;;;;;;;;;;11.10;99.90;;;;;;4994488;28;20290;-70
2022/10/26 07:21:48;;;;;;;;;;;11.10;99.90;;;;;;5021419;28;221538;-69
2022/10/26 07:24:14;;;;;;;;;;;11.10;99.90;;;;;;4973887;28;209221;-69
2022/10/26 07:26:40;;;;;;;;;;;11.20;99.90;;;;;;5014195;28;19925;-68
2022/10/26 07:29:06;;;;;;;;;;;11.30;99.90;;;;;;4955739;28;211827;-69
2022/10/26 07:31:31;;;;;;;;;;;11.30;99.90;;;;;;5024330;28;19922;-69
2022/10/26 07:33:57;;;;;;;;;;;11.30;99.90;;;;;;4955301;28;205052;-68
2022/10/26 07:36:23;;;;;;;;;;;11.40;99.90;;;;;;5028648;28;19984;-69
2022/10/26 07:38:52;;;;;;;;;;;11.50;99.90;;;;;;4983923;28;172929;-69
2022/10/26 07:41:19;;;;;;;;;;;11.60;99.90;;;;;;5030995;28;20286;-70
2022/10/26 07:43:45;;;;;;;;;;;11.60;99.90;;;;;;4993687;28;208161;-69
2022/10/26 07:46:11;;;;;;;;;;;11.70;99.90;;;;;;5057917;28;20012;-69
2022/10/26 07:48:38;;;;;;;;;;;11.80;99.90;;;;;;4986370;28;214990;-69
2022/10/26 07:51:04;;;;;;;;;;;11.80;99.90;;;;;;5031361;28;19921;-68
2022/10/26 07:53:30;;;;;;;;;;;11.90;99.90;;;;;;4982149;28;119363;-69
2022/10/26 07:55:56;;;;;;;;;;;12.00;99.90;;;;;;5030304;28;20348;-68
2022/10/26 07:58:24;;;;;;;;;;;12.00;99.90;;;;;;4981963;28;157467;-68
2022/10/26 08:00:51;;;;;;;;;;;12.10;99.90;;;;;;5029799;28;19927;-69
2022/10/26 08:03:17;;;;;;;;;;;12.20;99.90;;;;;;4961072;28;159275;-68
2022/10/26 08:05:50;;;;;;;;;;;12.30;99.90;;;;;;5023243;28;21401;-68
2022/10/26 08:08:16;;;;;;;;;;;12.40;99.90;;;;;;4981254;28;211466;-69
2022/10/26 08:10:43;;;;;;;;;;;12.50;99.90;;;;;;5022758;28;19932;-68
2022/10/26 08:13:09;;;;;;;;;;;12.50;99.90;;;;;;4982693;28;202487;-68
2022/10/26 08:15:35;;;;;;;;;;;12.50;99.90;;;;;;5036442;28;19928;-68
2022/10/26 08:18:01;;;;;;;;;;;12.50;99.90;;;;;;4952172;28;214816;-68
2022/10/26 08:20:27;;;;;;;;;;;12.40;99.90;;;;;;5047463;28;20401;-67
2022/10/26 08:22:56;;;;;;;;;;;12.40;99.90;;;;;;4982858;28;136439;-70
2022/10/26 08:25:22;;;;;;;;;;;12.40;99.90;;;;;;5011866;28;19928;-68
2022/10/26 08:27:48;;;;;;;;;;;12.40;99.90;;;;;;4995063;28;190483;-68
2022/10/26 08:30:14;;;;;;;;;;;12.40;99.90;;;;;;5050601;28;19936;-68
2022/10/26 08:32:43;;;;;;;;;;;12.40;99.90;;;;;;4973398;28;177313;-67
2022/10/26 08:35:09;;;;;;;;;;;12.40;99.90;;;;;;5004692;28;20408;-69
2022/10/26 08:37:35;;;;;;;;;;;12.50;99.90;;;;;;4988078;28;198573;-69
2022/10/26 08:40:04;;;;;;;;;;;12.50;99.90;;;;;;5007692;28;20302;-68
2022/10/26 08:42:30;;;;;;;;;;;12.60;99.90;;;;;;4963127;28;211100;-67
2022/10/26 08:45:00;;;;;;;;;;;12.60;99.90;;;;;;5015506;28;20012;-68
2022/10/26 08:47:29;;;;;;;;;;;12.70;99.90;;;;;;4995462;28;197198;-68
2022/10/26 08:49:55;;;;;;;;;;;12.80;99.90;;;;;;5000044;28;19921;-68
2022/10/26 08:52:23;;;;;;;;;;;12.80;99.90;;;;;;4978848;28;204562;-69
2022/10/26 08:54:54;;;;;;;;;;;12.90;99.90;;;;;;5056131;28;20400;-67
2022/10/26 08:57:20;;;;;;;;;;;12.90;99.90;;;;;;4960263;28;184901;-69
2022/10/26 08:59:49;;;;;;;;;;;13.00;99.90;;;;;;5045873;28;19964;-68
2022/10/26 09:02:16;;;;;;;;;;;13.00;99.90;;;;;;4969762;28;208099;-69
2022/10/26 09:04:42;;;;;;;;;;;13.00;99.90;;;;;;5003503;28;20306;-69
2022/10/26 09:07:26;;;;;;;;;;;13.10;99.90;;;;;;4975450;28;215169;-68
2022/10/26 09:10:10;;;;;;;;;;;13.10;99.90;;;;;;5006224;28;19932;-67
2022/10/26 09:12:55;;;;;;;;;;;13.20;99.90;;;;;;4980370;28;137198;-68
2022/10/26 09:15:27;;;;;;;;;;;13.20;99.90;;;;;;5012171;28;19917;-69
2022/10/26 09:18:16;;;;;;;;;;;13.30;99.90;;;;;;4973327;28;207155;-68
2022/10/26 09:20:47;;;;;;;;;;;13.30;99.90;;;;;;5003749;28;19917;-67
2022/10/26 09:23:36;;;;;;;;;;;13.40;99.90;;;;;;4930564;28;205981;-68
2022/10/26 09:26:02;;;;;;;;;;;13.60;99.90;;;;;;4930875;29;19922;-68
2022/10/26 09:28:30;;;;;;;;;;;13.70;99.90;;;;;;4913884;28;207421;-68
2022/10/26 09:30:58;;;;;;;;;;;13.80;99.90;;;;;;4934382;28;19918;-68
2022/10/26 09:33:24;;;;;;;;;;;13.90;99.90;;;;;;4881130;29;183582;-68
2022/10/26 09:35:54;;;;;;;;;;;14.00;99.90;;;;;;4933520;29;20723;-66
2022/10/26 09:38:30;;;;;;;;;;;14.10;99.90;;;;;;4919006;28;135606;-67
2022/10/26 09:41:02;;;;;;;;;;;14.30;99.90;;;;;;4931344;29;20305;-68
2022/10/26 09:43:32;;;;;;;;;;;14.60;99.90;;;;;;4896493;28;189097;-69
2022/10/26 09:45:58;;;;;;;;;;;14.80;99.90;;;;;;4946293;29;20407;-68
2022/10/26 09:48:31;;;;;;;;;;;15.00;99.90;;;;;;4889413;28;208922;-68
2022/10/26 09:50:59;;;;;;;;;;;15.00;99.90;;;;;;4940738;28;19926;-68
2022/10/26 09:53:25;;;;;;;;;;;15.10;99.90;;;;;;4911158;28;36133;-67
2022/10/26 09:55:58;;;;;;;;;;;15.20;99.90;;;;;;4930837;29;20351;-68
2022/10/26 09:58:29;;;;;;;;;;;15.30;99.90;;;;;;4894486;28;186619;-68
2022/10/26 10:00:55;;;;;;;;;;;15.30;99.90;;;;;;4989691;28;19918;-68
2022/10/26 10:03:26;;;;;;;;;;;15.50;99.90;;;;;;4931573;28;105083;-68
2022/10/26 10:05:52;;;;;;;;;;;15.60;99.90;;;;;;5018517;28;19928;-68
2022/10/26 10:08:18;;;;;;;;;;;15.70;99.90;;;;;;4932837;28;1125020;-67
2022/10/26 10:10:58;;;;;;;;;;;15.80;99.90;;;;;;5023999;28;19931;-67
2022/10/26 10:13:28;;;;;;;;;;;15.90;99.90;;;;;;4963555;28;206436;-68
2022/10/26 10:15:59;;;;;;;;;;;15.90;99.90;;;;;;5021712;28;19917;-68
2022/10/26 10:18:25;;;;;;;;;;;16.10;99.90;;;;;;4970422;28;178077;-69
2022/10/26 10:20:55;;;;;;;;;;;16.10;99.90;;;;;;5021942;28;19928;-68
2022/10/26 10:23:30;;;;;;;;;;;16.30;99.90;;;;;;4968229;28;210504;-68
2022/10/26 10:26:01;;;;;;;;;;;16.30;99.90;;;;;;5017795;28;19921;-67
2022/10/26 10:28:28;;;;;;;;;;;16.40;99.90;;;;;;4957061;28;210196;-68
2022/10/26 10:30:58;;;;;;;;;;;16.50;99.90;;;;;;5016790;28;19917;-68
2022/10/26 10:33:38;;;;;;;;;;;16.60;99.90;;;;;;4978370;28;119650;-68
2022/10/26 10:36:09;;;;;;;;;;;16.70;99.90;;;;;;5026855;28;20405;-68
2022/10/26 10:38:42;;;;;;;;;;;16.90;99.90;;;;;;4988210;28;180549;-69
2022/10/26 10:41:16;;;;;;;;;;;17.00;99.90;;;;;;5019610;28;19917;-67
2022/10/26 10:43:44;;;;;;;;;;;17.10;99.90;;;;;;4971980;28;211761;-68
2022/10/26 10:46:16;;;;;;;;;;;17.20;99.90;;;;;;5019624;28;19929;-68
2022/10/26 10:48:45;;;;;;;;;;;17.20;99.90;;;;;;4986995;28;176655;-68
2022/10/26 10:51:17;;;;;;;;;;;17.30;99.90;;;;;;5016375;28;19932;-69
2022/10/26 10:53:44;;;;;;;;;;;17.40;99.90;;;;;;4973293;28;179861;-68
2022/10/26 10:56:16;;;;;;;;;;;17.60;99.90;;;;;;5030286;28;19924;-68
2022/10/26 10:58:56;;;;;;;;;;;17.70;99.90;;;;;;4991150;28;162998;-68
2022/10/26 11:01:24;;;;;;;;;;;17.90;99.90;;;;;;5037473;28;19928;-69
2022/10/26 11:04:08;;;;;;;;;;;18.10;99.90;;;;;;4968879;28;142171;-70
2022/10/26 11:06:36;;;;;;;;;;;18.20;99.90;;;;;;5026642;28;19921;-68
2022/10/26 11:09:05;;;;;;;;;;;18.30;99.90;;;;;;4972530;28;220653;-69
2022/10/26 11:11:37;;;;;;;;;;;18.30;99.90;;;;;;5025820;28;20412;-68
2022/10/26 11:14:05;;;;;;;;;;;18.30;99.90;;;;;;4974145;28;173343;-67
2022/10/26 11:16:35;;;;;;;;;;;18.20;99.90;;;;;;5044050;28;19921;-68
2022/10/26 11:19:13;;;;;;;;;;;18.20;99.90;;;;;;5010812;28;155228;-68
2022/10/26 11:21:39;;;;;;;;;;;18.20;99.90;;;;;;5023151;28;19939;-68
2022/10/26 11:24:12;;;;;;;;;;;18.30;99.90;;;;;;4974220;28;207692;-68
2022/10/26 11:26:58;;;;;;;;;;;18.40;99.90;;;;;;5025228;28;19924;-68
2022/10/26 11:29:28;;;;;;;;;;;18.40;99.90;;;;;;4953293;28;209825;-69
2022/10/26 11:32:12;;;;;;;;;;;18.40;99.90;;;;;;5007044;28;209095;-69
2022/10/26 11:34:43;;;;;;;;;;;18.50;99.90;;;;;;4992521;28;19924;-69
2022/10/26 11:37:15;;;;;;;;;;;18.40;99.90;;;;;;4975406;28;208475;-68
2022/10/26 11:39:43;;;;;;;;;;;18.40;99.90;;;;;;4998622;28;19917;-67
2022/10/26 11:42:20;;;;;;;;;;;18.50;99.90;;;;;;4960140;28;211894;-68
2022/10/26 11:45:02;;;;;;;;;;;19.10;99.90;;;;;;5033358;28;20676;-69
2022/10/26 11:47:47;;;;;;;;;;;20.00;99.90;;;;;;5007835;28;140208;-68
2022/10/26 11:50:18;;;;;;;;;;;20.70;99.90;;;;;;5022824;28;20614;-68
2022/10/26 11:52:50;;;;;;;;;;;21.40;99.90;;;;;;4975931;28;206681;-69
2022/10/26 11:55:16;;;;;;;;;;;21.90;99.90;;;;;;5025461;28;20298;-69
2022/10/26 11:57:45;;;;;;;;;;;22.50;99.90;;;;;;5016579;28;19916;-67
2022/10/26 12:00:16;;;;;;;;;;;22.70;99.90;;;;;;5027250;28;19921;-69
2022/10/26 12:02:45;;;;;;;;;;;22.90;99.90;;;;;;4965443;28;200520;-69
2022/10/26 12:05:14;;;;;;;;;;;23.10;99.90;;;;;;5039006;28;20001;-68
2022/10/26 12:07:43;;;;;;;;;;;23.40;99.90;;;;;;4976505;28;145260;-69
2022/10/26 12:10:13;;;;;;;;;;;22.80;99.60;;;;;;4994641;28;19920;-67
2022/10/26 12:12:59;;;;;;;;;;;22.00;99.90;;;;;;4976871;28;177139;-69
2022/10/26 12:15:31;;;;;;;;;;;22.20;99.90;;;;;;5025678;28;20402;-68
2022/10/26 12:18:03;;;;;;;;;;;21.80;99.90;;;;;;4971685;28;225105;-69
2022/10/26 12:20:29;;;;;;;;;;;21.60;99.90;;;;;;5025812;28;19921;-70
2022/10/26 12:22:55;;;;;;;;;;;22.10;99.90;;;;;;4990534;28;130262;-68
2022/10/26 12:25:21;;;;;;;;;;;22.20;99.90;;;;;;5027866;28;19929;-69
2022/10/26 12:27:49;;;;;;;;;;;22.90;99.90;;;;;;4982724;28;209117;-68
2022/10/26 12:30:18;;;;;;;;;;;23.60;99.50;;;;;;5033163;28;19932;-69
2022/10/26 12:32:44;;;;;;;;;;;23.80;98.80;;;;;;4983272;28;149329;-67
2022/10/26 12:35:29;;;;;;;;;;;23.20;99.20;;;;;;5024368;28;19924;-68
2022/10/26 12:37:55;;;;;;;;;;;22.80;99.70;;;;;;4999005;28;203107;-68
2022/10/26 12:40:33;;;;;;;;;;;22.80;99.70;;;;;;5028864;28;19924;-68
2022/10/26 12:43:22;;;;;;;;;;;22.10;99.90;;;;;;4967599;28;206514;-68
2022/10/26 12:46:14;;;;;;;;;;;21.50;99.90;;;;;;5024950;28;19929;-68
2022/10/26 12:48:44;;;;;;;;;;;21.00;99.90;;;;;;4977895;28;209972;-68
2022/10/26 12:51:17;;;;;;;;;;;20.50;99.90;;;;;;5002779;28;19925;-68
2022/10/26 12:53:48;;;;;;;;;;;20.30;99.90;;;;;;4977758;28;129631;-69
2022/10/26 12:56:17;;;;;;;;;;;20.00;99.90;;;;;;5025058;28;19917;-69
2022/10/26 12:59:00;;;;;;;;;;;20.00;99.90;;;;;;4964178;28;132268;-70
2022/10/26 13:01:35;;;;;;;;;;;20.30;99.90;;;;;;5023518;28;19920;-69
2022/10/26 13:04:11;;;;;;;;;;;20.80;99.90;;;;;;4962079;28;150152;-69
2022/10/26 13:06:52;;;;;;;;;;;20.80;99.90;;;;;;5031410;28;20382;-69
2022/10/26 13:09:23;;;;;;;;;;;20.60;99.90;;;;;;4939438;28;206464;-69
2022/10/26 13:11:51;;;;;;;;;;;20.20;99.90;;;;;;5036192;28;215906;-68
2022/10/26 13:14:20;;;;;;;;;;;19.90;99.90;;;;;;4966113;28;207055;-69
2022/10/26 13:16:47;;;;;;;;;;;19.70;99.90;;;;;;5027850;28;19917;-68
2022/10/26 13:19:29;;;;;;;;;;;19.60;99.90;;;;;;4966602;28;34925;-68
2022/10/26 13:21:57;;;;;;;;;;;19.50;99.90;;;;;;5001924;28;209246;-68
2022/10/26 13:24:24;;;;;;;;;;;19.40;99.90;;;;;;4988586;28;19918;-67
2022/10/26 13:27:06;;;;;;;;;;;19.30;99.90;;;;;;5008737;28;205577;-69
2022/10/26 13:29:52;;;;;;;;;;;19.30;99.90;;;;;;4976354;28;19932;-69
2022/10/26 13:32:19;;;;;;;;;;;19.50;99.90;;;;;;4970726;28;219030;-68
2022/10/26 13:34:45;;;;;;;;;;;19.30;99.90;;;;;;5035558;28;19925;-69
2022/10/26 13:37:19;;;;;;;;;;;19.10;99.90;;;;;;4977411;28;207270;-68
2022/10/26 13:39:46;;;;;;;;;;;19.00;99.90;;;;;;5006624;28;20377;-68
2022/10/26 13:42:15;;;;;;;;;;;19.10;99.90;;;;;;4969925;28;201560;-68
2022/10/26 13:44:46;;;;;;;;;;;18.90;99.90;;;;;;5031243;28;19932;-70
2022/10/26 13:47:34;;;;;;;;;;;18.80;99.90;;;;;;4980624;28;210751;-68
2022/10/26 13:50:05;;;;;;;;;;;18.70;99.90;;;;;;5015207;28;19917;-68
2022/10/26 13:52:34;;;;;;;;;;;18.50;99.90;;;;;;5012517;28;115699;-68
2022/10/26 13:55:12;;;;;;;;;;;18.40;99.90;;;;;;5023410;28;19917;-69
2022/10/26 13:57:39;;;;;;;;;;;18.40;99.90;;;;;;4980830;28;196982;-69
2022/10/26 14:00:23;;;;;;;;;;;18.40;99.90;;;;;;5051004;28;19932;-68
2022/10/26 14:02:49;;;;;;;;;;;18.40;99.90;;;;;;4989581;28;206738;-68
2022/10/26 14:05:16;;;;;;;;;;;18.50;99.90;;;;;;5016097;28;19932;-68
2022/10/26 14:07:44;;;;;;;;;;;19.30;99.90;;;;;;4987290;28;141061;-67
2022/10/26 14:10:23;;;;;;;;;;;19.10;99.90;;;;;;5047570;28;20310;-67
2022/10/26 14:12:49;;;;;;;;;;;19.50;99.90;;;;;;5005640;28;142445;-68
2022/10/26 14:15:18;;;;;;;;;;;20.10;99.90;;;;;;5020338;28;19921;-68
2022/10/26 14:17:48;;;;;;;;;;;20.40;99.90;;;;;;4971400;28;184646;-69
2022/10/26 14:20:17;;;;;;;;;;;20.30;99.90;;;;;;5014352;28;19921;-68
2022/10/26 14:22:43;;;;;;;;;;;20.80;99.90;;;;;;4973660;28;207378;-68
2022/10/26 14:25:23;;;;;;;;;;;20.80;99.90;;;;;;5016512;28;19925;-69
2022/10/26 14:27:50;;;;;;;;;;;20.40;99.90;;;;;;4974907;28;195960;-68
2022/10/26 14:30:30;;;;;;;;;;;19.80;99.90;;;;;;5037353;28;19925;-69